الصفحة الرئيسية
METAR-TAF:

METAR-TAF

مطار :

Rarotonga, جزر كوك

دائرة عرض: 21-12S, خط طول: 159-49W, ارتفاع: 7 متر

مراقبة الطقس الحالي

تاريخ ووقت الإصدار 38 دقيقة قبل الساعة 17:00UTC
ريح 10 عقدة من الجنوب/الجنوب الغربي
درجة الحرارة 20°درجة مئوية
الرطوبة 100%
ضغط 1013 hPa
الرؤية 10 كم أو أكثر
غيوم قليلة على ارتفاع 1000 قدم
غيوم متفرقة على ارتفاع 1600 قدم
غيوم مفككة على ارتفاع 4000 قدم
زخات من الأمطار الخفيفة

METAR: NCRG 141700Z 21010KT 9999 -SHRA FEW010 SCT016 BKN040 20/20 Q1013

زمن: 07:38 (17:38 UTC)

توقعات

تاريخ ووقت الإصدار 26 دقيقة قبل الساعة 17:12UTC
التوقعات صالحة من14 الساعة 18 UTC إلى 15 الساعة 18 UTC
ريح 7 عقدة من الجنوب/الجنوب الشرقي
الرؤية 10 كم أو أكثر
غيوم قليلة على ارتفاع 1000 قدم
غيوم متفرقة على ارتفاع 1600 قدم
غيوم مفككة على ارتفاع 4000 قدم
نظرية الاحتمالات 30% :
مؤقت
من 14 الساعة 18 UTC إلى 14 الساعة 22 UTC
الرؤية: 5000 متر
غيوم مفككة على ارتفاع 1500 قدم
زخات من المطر

TAF: NCRG 141712Z 1418/1518 15007KT 9999 FEW010 SCT016 BKN040 PROB30 TEMPO 1418/1422 5000 SHRA BKN015

أرصاد الطقس والتوقعات من أكثر من 4000 مطار (تقارير الطقس للمطار METAR والتنبؤ بالطقس بالمطارTAF).

المحطات المتاحة هي النقط الصفراء والحمراء على الخريطة.

حرك المؤشر فوق النقطة لمعرفة اسم المحطة.

ثم انقر لمعرفة أرصاد وتوقعات الطقس.

لتغيير الخارطة: اضغط على الأزرار الخضراء مع رمز الصليب الأسود للتكبير. على الزر الأخضر مع شرطة للتصغير، أو على الأسهم الخضراء للخرائط المجاورة.


METAR-TAF: